KLBB

Lubbock Preston Smith International Airport

Lubbock, Texas, USA

KLBB 110853Z 29008KT 10SM FEW300 M03/M13 A3033 RMK AO2 SLP260 T10331133 56009 $

Observed Flight Rules
Dec-11 @ 08:53 UTC (25 minutes ago) Visual Flight Rules
Wind Visibility Clouds
290° at 8 knots 10 miles
  • Few at 30,000' AGL
Temperatures Readings
Current -3°C / 27°F
Dewpoint -13°C / 9°F
Humidity 46%
Altimeter 30.33" Hg
Pressure 1026 hPa
Elevation 993
Observed Flight Rules
Dec-11 @ 08:53 UTC
(25 minutes ago)
VFR
Wind Visibility
290° at 8 knots 10 miles
Clouds
  • Few at 30,000' AGL
Temperature Dewpoint
-3°C / 27°F -13°C / 9°F
Humidity Altimeter Pressure
46% 30.33" Hg 1026 hPa